Time;durP1;ratioP1;P1;durP2;ratioP2;P2;SDS_P1;SDS_P2;PMS_P1;PMS_P2;Temp;Humidity;BMP_temperature;BMP_pressure;BME280_temperature;BME280_humidity;BME280_pressure;Samples;Min_cycle;Max_cycle;Signal;HPM_P1;HPM_P2
2022/07/07 00:00:35;;;;;;;3.20;0.70;;;18.10;90.00;;;;;;5054246;28;20380;-74
2022/07/07 00:03:02;;;;;;;2.47;0.80;;;18.10;90.10;;;;;;5055928;28;20052;-74
2022/07/07 00:05:31;;;;;;;2.47;0.88;;;18.10;90.10;;;;;;5054436;28;20044;-74
2022/07/07 00:07:58;;;;;;;3.00;1.00;;;18.00;90.10;;;;;;5054524;28;20059;-73
2022/07/07 00:10:26;;;;;;;2.70;0.80;;;18.00;90.10;;;;;;5055137;28;20044;-74
2022/07/07 00:12:53;;;;;;;1.70;0.80;;;18.00;90.20;;;;;;5055191;28;20045;-74
2022/07/07 00:15:21;;;;;;;3.90;1.00;;;18.00;90.30;;;;;;5053899;28;20060;-73
2022/07/07 00:17:49;;;;;;;2.75;0.90;;;18.00;90.40;;;;;;5055005;28;20045;-73
2022/07/07 00:20:17;;;;;;;2.17;0.70;;;18.00;90.40;;;;;;5054421;28;20045;-73
2022/07/07 00:22:44;;;;;;;5.13;0.70;;;18.00;90.40;;;;;;5055443;28;20049;-73
2022/07/07 00:25:12;;;;;;;3.85;0.70;;;18.00;90.40;;;;;;5054314;28;20044;-74
2022/07/07 00:27:39;;;;;;;1.20;0.60;;;18.00;90.50;;;;;;5053854;28;20495;-73
2022/07/07 00:30:08;;;;;;;4.50;0.80;;;18.00;90.60;;;;;;5037534;28;20060;-74
2022/07/07 00:32:35;;;;;;;;;;;18.00;90.70;;;;;;5036802;28;20060;-73
2022/07/07 00:35:03;;;;;;;4.13;0.77;;;17.90;91.00;;;;;;5033718;28;19921;-73
2022/07/07 00:37:31;;;;;;;3.28;0.95;;;18.00;90.70;;;;;;5034925;28;20046;-74
2022/07/07 00:39:58;;;;;;;4.20;1.00;;;18.00;90.70;;;;;;5000320;28;20056;-74
2022/07/07 00:42:26;;;;;;;2.42;0.88;;;18.00;90.80;;;;;;5034651;28;20046;-73
2022/07/07 00:44:54;;;;;;;2.05;0.95;;;18.00;90.80;;;;;;5035210;28;20041;-73
2022/07/07 00:47:21;;;;;;;3.10;1.10;;;18.00;90.90;;;;;;5033653;28;20054;-73
2022/07/07 00:49:49;;;;;;;3.47;1.05;;;18.00;90.80;;;;;;5017899;28;20050;-74
2022/07/07 00:52:17;;;;;;;2.90;0.95;;;18.00;90.90;;;;;;5034824;28;20042;-73
2022/07/07 00:54:59;;;;;;;2.53;1.10;;;18.10;90.90;;;;;;5033041;28;20068;-73
2022/07/07 00:57:27;;;;;;;2.65;1.00;;;18.10;91.00;;;;;;5034511;28;20053;-73
2022/07/07 00:59:58;;;;;;;1.98;0.90;;;18.20;90.90;;;;;;5033559;28;20050;-74
2022/07/07 01:02:29;;;;;;;2.58;0.80;;;18.20;90.90;;;;;;5034961;28;20049;-73
2022/07/07 01:05:03;;;;;;;3.50;0.95;;;18.30;90.90;;;;;;5001005;28;20061;-73
2022/07/07 01:07:32;;;;;;;3.45;1.00;;;18.30;90.90;;;;;;5033497;28;20049;-74
2022/07/07 01:10:01;;;;;;;1.98;0.70;;;18.30;90.90;;;;;;5017273;28;20041;-74
2022/07/07 01:12:34;;;;;;;2.67;1.00;;;18.20;90.80;;;;;;5017288;28;20053;-74
2022/07/07 01:15:03;;;;;;;3.95;1.02;;;18.30;90.90;;;;;;5016329;28;20065;-74
2022/07/07 01:17:31;;;;;;;5.30;0.93;;;18.30;90.90;;;;;;5034307;28;20045;-74
2022/07/07 01:20:00;;;;;;;2.78;0.80;;;18.30;91.00;;;;;;5033225;28;20401;-73
2022/07/07 01:22:31;;;;;;;2.08;0.90;;;18.30;91.00;;;;;;5017169;28;20052;-74
2022/07/07 01:24:59;;;;;;;1.50;0.73;;;18.30;90.90;;;;;;5034786;28;20049;-73
2022/07/07 01:27:27;;;;;;;2.20;1.00;;;18.30;91.00;;;;;;5033208;28;20041;-74
2022/07/07 01:29:56;;;;;;;2.45;0.80;;;18.30;91.00;;;;;;5034373;28;20069;-74
2022/07/07 01:32:26;;;;;;;3.13;0.75;;;18.30;91.00;;;;;;5034238;28;20062;-73
2022/07/07 01:34:54;;;;;;;3.20;0.80;;;18.30;91.10;;;;;;5016128;28;20052;-74
2022/07/07 01:37:24;;;;;;;;;;;18.30;91.20;;;;;;5034650;28;20041;-73
2022/07/07 01:39:53;;;;;;;2.22;0.90;;;18.30;91.30;;;;;;5034126;28;20363;-74
2022/07/07 01:42:20;;;;;;;;;;;18.20;91.40;;;;;;5034575;28;20057;-74
2022/07/07 01:44:51;;;;;;;2.45;0.90;;;18.20;91.40;;;;;;5034365;28;19932;-74
2022/07/07 01:47:21;;;;;;;2.85;0.90;;;18.20;91.20;;;;;;5033453;28;20053;-73
2022/07/07 01:49:50;;;;;;;3.58;0.85;;;18.20;91.30;;;;;;5034727;28;20056;-74
2022/07/07 01:52:17;;;;;;;3.13;0.90;;;18.20;91.30;;;;;;5034419;28;20468;-73
2022/07/07 01:54:46;;;;;;;2.35;0.90;;;18.10;91.40;;;;;;5033155;28;20054;-73
2022/07/07 01:57:15;;;;;;;2.55;0.88;;;18.00;91.50;;;;;;5034072;28;20041;-73
2022/07/07 01:59:42;;;;;;;;;;;18.00;91.50;;;;;;5017148;28;20052;-73
2022/07/07 02:02:10;;;;;;;3.78;0.85;;;17.90;92.00;;;;;;5015749;28;19928;-73
2022/07/07 02:04:37;;;;;;;3.33;1.10;;;17.90;91.70;;;;;;5001086;28;20042;-74
2022/07/07 02:07:05;;;;;;;2.88;1.08;;;17.80;91.70;;;;;;5035452;28;20056;-73
2022/07/07 02:09:33;;;;;;;3.25;1.17;;;17.90;91.80;;;;;;5020192;28;20056;-74
2022/07/07 02:12:01;;;;;;;3.08;1.23;;;17.80;91.90;;;;;;5020463;28;20049;-74
2022/07/07 02:14:28;;;;;;;5.00;1.13;;;17.80;92.00;;;;;;5019556;28;20060;-73
2022/07/07 02:16:56;;;;;;;3.15;1.20;;;17.80;92.10;;;;;;5037600;28;20045;-74
2022/07/07 02:19:23;;;;;;;3.97;1.15;;;17.80;92.20;;;;;;5019936;28;20372;-73
2022/07/07 02:21:51;;;;;;;3.50;1.30;;;17.80;92.30;;;;;;5019079;28;20057;-74
2022/07/07 02:24:18;;;;;;;6.88;1.20;;;17.80;92.30;;;;;;5003550;28;20053;-73
2022/07/07 02:26:46;;;;;;;2.53;1.10;;;17.80;92.30;;;;;;5036730;28;20045;-74
2022/07/07 02:29:13;;;;;;;4.07;1.15;;;17.80;92.40;;;;;;5037439;28;20049;-73
2022/07/07 02:31:41;;;;;;;1.83;0.93;;;17.80;92.50;;;;;;5037418;28;20049;-74
2022/07/07 02:34:09;;;;;;;;;;;17.80;92.50;;;;;;5036603;28;20065;-74
2022/07/07 02:36:36;;;;;;;5.95;1.23;;;17.90;92.80;;;;;;5037068;28;19921;-73
2022/07/07 02:39:04;;;;;;;3.30;1.40;;;17.90;92.60;;;;;;5019737;28;20061;-74
2022/07/07 02:41:32;;;;;;;3.67;1.20;;;17.90;92.60;;;;;;5018698;28;20068;-74
2022/07/07 02:43:59;;;;;;;5.00;1.23;;;17.90;92.60;;;;;;5003532;28;20376;-74
2022/07/07 02:46:28;;;;;;;5.95;1.38;;;17.90;92.70;;;;;;5036755;28;20045;-74
2022/07/07 02:48:56;;;;;;;5.05;1.17;;;17.90;92.70;;;;;;5002329;28;20376;-74
2022/07/07 02:51:24;;;;;;;2.92;1.20;;;17.90;92.70;;;;;;5019497;28;20056;-74
2022/07/07 02:53:51;;;;;;;3.85;1.20;;;18.00;92.70;;;;;;5035667;28;20356;-74
2022/07/07 02:56:19;;;;;;;4.18;1.35;;;18.00;92.70;;;;;;5036840;28;20041;-74
2022/07/07 02:58:46;;;;;;;4.68;1.27;;;18.00;92.70;;;;;;5036468;28;20045;-74
2022/07/07 03:01:14;;;;;;;5.15;1.33;;;18.00;92.80;;;;;;5035524;28;20049;-74
2022/07/07 03:03:44;;;;;;;3.60;1.50;;;18.00;92.80;;;;;;5036631;28;20052;-74
2022/07/07 03:06:12;;;;;;;3.08;1.27;;;18.00;92.80;;;;;;5019205;28;20049;-74
2022/07/07 03:08:39;;;;;;;8.07;1.50;;;18.00;92.90;;;;;;5035339;28;20049;-74
2022/07/07 03:11:07;;;;;;;4.22;1.30;;;18.00;92.90;;;;;;5036350;28;20380;-74
2022/07/07 03:13:35;;;;;;;3.03;1.20;;;18.00;93.00;;;;;;5035336;28;20372;-74
2022/07/07 03:16:02;;;;;;;5.25;1.35;;;18.00;93.00;;;;;;5002720;28;20053;-74
2022/07/07 03:18:31;;;;;;;5.28;1.52;;;18.00;93.00;;;;;;5036024;28;20041;-74
2022/07/07 03:20:59;;;;;;;3.53;1.30;;;18.00;93.00;;;;;;5035082;28;20053;-74
2022/07/07 03:23:26;;;;;;;3.97;1.40;;;18.00;93.00;;;;;;5018884;28;20380;-74
2022/07/07 03:25:54;;;;;;;;;;;18.00;93.10;;;;;;5036435;28;20049;-74
2022/07/07 03:28:22;;;;;;;2.85;1.10;;;18.00;93.30;;;;;;5034966;28;19921;-74
2022/07/07 03:30:49;;;;;;;5.07;1.40;;;18.00;93.00;;;;;;5038013;28;20045;-74
2022/07/07 03:33:17;;;;;;;2.58;1.10;;;18.00;93.10;;;;;;5034829;28;20061;-74
2022/07/07 03:35:50;;;;;;;4.30;1.60;;;18.00;93.10;;;;;;5035942;28;20049;-74
2022/07/07 03:38:18;;;;;;;2.75;1.20;;;18.10;93.10;;;;;;5035895;28;20049;-74
2022/07/07 03:40:46;;;;;;;5.47;1.40;;;18.00;93.10;;;;;;5034748;28;20045;-74
2022/07/07 03:43:13;;;;;;;2.95;1.25;;;18.10;93.10;;;;;;5036159;28;20523;-74
2022/07/07 03:45:41;;;;;;;6.60;1.40;;;18.10;93.10;;;;;;5018460;28;20064;-74
2022/07/07 03:48:09;;;;;;;5.70;1.40;;;18.10;93.10;;;;;;5034496;28;20452;-74
2022/07/07 03:50:36;;;;;;;6.35;1.33;;;18.10;93.10;;;;;;5018688;28;20045;-74
2022/07/07 03:53:04;;;;;;;4.20;1.42;;;18.10;93.00;;;;;;5018825;28;20053;-74
2022/07/07 03:55:32;;;;;;;2.90;1.10;;;18.10;93.00;;;;;;5034464;28;20053;-73
2022/07/07 03:58:00;;;;;;;5.03;1.50;;;18.10;92.90;;;;;;5035471;28;20060;-73
2022/07/07 04:00:27;;;;;;;4.45;1.10;;;18.10;92.80;;;;;;5034252;28;20056;-73
2022/07/07 04:02:55;;;;;;;4.63;1.13;;;18.10;92.80;;;;;;5002406;28;20053;-74
2022/07/07 04:05:23;;;;;;;2.25;1.10;;;18.10;92.70;;;;;;5035592;28;20053;-73
2022/07/07 04:07:50;;;;;;;4.10;1.25;;;18.10;92.60;;;;;;5017121;28;20049;-74
2022/07/07 04:10:18;;;;;;;2.40;1.02;;;18.10;92.60;;;;;;5035173;28;20052;-73
2022/07/07 04:12:46;;;;;;;3.38;1.05;;;18.10;92.50;;;;;;5035270;28;20050;-74
2022/07/07 04:15:13;;;;;;;3.75;1.10;;;18.10;92.60;;;;;;5034179;28;20049;-74
2022/07/07 04:17:41;;;;;;;2.22;0.98;;;18.10;92.50;;;;;;5018128;28;20041;-74
2022/07/07 04:20:09;;;;;;;3.65;0.90;;;18.10;92.40;;;;;;5033958;28;20046;-74
2022/07/07 04:22:36;;;;;;;5.07;1.00;;;18.10;92.40;;;;;;5017876;28;20053;-74
2022/07/07 04:25:05;;;;;;;2.42;1.05;;;18.10;92.40;;;;;;5017935;28;20056;-74
2022/07/07 04:27:32;;;;;;;;;;;18.10;92.40;;;;;;5016938;28;20076;-74
2022/07/07 04:30:00;;;;;;;6.22;1.23;;;18.10;92.60;;;;;;5016910;28;19932;-74
2022/07/07 04:32:27;;;;;;;5.88;1.20;;;18.00;92.40;;;;;;5044599;28;20502;-74
2022/07/07 04:34:55;;;;;;;3.30;1.20;;;18.10;92.50;;;;;;5053817;28;20131;-74
2022/07/07 04:37:23;;;;;;;8.23;1.38;;;18.10;92.80;;;;;;5054863;28;20040;-74
2022/07/07 04:39:50;;;;;;;2.78;1.10;;;18.10;92.60;;;;;;5054171;28;20049;-73
2022/07/07 04:42:18;;;;;;;3.75;1.40;;;18.00;92.60;;;;;;5054539;28;20056;-74
2022/07/07 04:44:45;;;;;;;2.55;1.27;;;18.00;92.70;;;;;;5055209;28;20041;-74
2022/07/07 04:47:13;;;;;;;3.17;1.30;;;18.00;92.70;;;;;;5053738;28;20033;-74
2022/07/07 04:49:41;;;;;;;3.63;1.40;;;18.00;92.70;;;;;;5054949;28;20053;-74
2022/07/07 04:52:08;;;;;;;2.60;1.27;;;18.00;92.80;;;;;;5053749;28;20068;-74
2022/07/07 04:54:36;;;;;;;3.00;1.30;;;17.90;92.80;;;;;;5053535;28;20045;-74
2022/07/07 04:57:04;;;;;;;3.63;1.48;;;17.90;92.80;;;;;;5054767;28;20056;-74
2022/07/07 04:59:34;;;;;;;4.03;1.50;;;17.90;92.80;;;;;;5054809;28;20045;-74
2022/07/07 05:02:02;;;;;;;6.22;1.67;;;18.00;92.80;;;;;;5053403;28;20052;-74
2022/07/07 05:04:30;;;;;;;3.67;1.52;;;18.00;92.70;;;;;;5053714;28;20056;-74
2022/07/07 05:06:57;;;;;;;4.22;1.48;;;18.00;92.70;;;;;;5053769;28;20048;-74
2022/07/07 05:09:26;;;;;;;2.35;1.13;;;18.00;92.70;;;;;;5054602;28;20060;-74
2022/07/07 05:11:53;;;;;;;2.22;1.10;;;18.00;92.70;;;;;;5053859;28;20056;-74
2022/07/07 05:14:21;;;;;;;9.73;1.30;;;18.00;92.70;;;;;;5053463;28;20055;-74
2022/07/07 05:16:49;;;;;;;4.18;1.40;;;18.00;92.70;;;;;;5037096;28;20471;-74
2022/07/07 05:19:16;;;;;;;3.95;1.40;;;18.00;93.00;;;;;;5054435;28;20049;-74
2022/07/07 05:21:44;;;;;;;3.25;1.55;;;17.90;93.10;;;;;;5052211;28;20048;-74
2022/07/07 05:24:12;;;;;;;7.20;1.63;;;17.90;93.20;;;;;;5054066;28;20072;-74
2022/07/07 05:26:39;;;;;;;4.10;1.38;;;17.90;93.30;;;;;;5036167;28;20045;-74
2022/07/07 05:29:07;;;;;;;4.53;1.30;;;17.80;93.30;;;;;;5037044;28;20111;-74
2022/07/07 05:31:35;;;;;;;5.72;1.60;;;17.80;93.20;;;;;;5036513;28;20045;-73
2022/07/07 05:34:02;;;;;;;4.22;1.63;;;17.80;93.00;;;;;;5052997;28;20049;-74
2022/07/07 05:36:31;;;;;;;3.63;1.40;;;17.80;92.90;;;;;;5053966;28;20495;-73
2022/07/07 05:39:00;;;;;;;4.57;1.50;;;17.80;92.70;;;;;;5053956;28;20041;-74
2022/07/07 05:41:27;;;;;;;3.50;1.30;;;17.80;92.50;;;;;;5056145;28;20048;-74
2022/07/07 05:43:55;;;;;;;3.30;1.20;;;17.80;92.50;;;;;;5058150;28;20048;-74
2022/07/07 05:46:22;;;;;;;3.85;1.30;;;17.80;92.50;;;;;;5057174;28;20047;-74
2022/07/07 05:48:50;;;;;;;3.28;1.40;;;17.80;92.40;;;;;;5055824;28;20049;-74
2022/07/07 05:51:18;;;;;;;4.55;1.40;;;17.80;92.30;;;;;;5058206;28;20056;-74
2022/07/07 05:53:46;;;;;;;3.90;1.40;;;17.80;92.30;;;;;;5056738;28;20480;-74
2022/07/07 05:56:14;;;;;;;6.72;1.58;;;17.80;92.40;;;;;;5057784;28;20068;-74
2022/07/07 05:58:42;;;;;;;5.68;1.60;;;17.80;92.40;;;;;;5056670;28;20045;-74
2022/07/07 06:01:10;;;;;;;4.25;1.60;;;17.80;92.50;;;;;;5056586;28;20052;-74
2022/07/07 06:03:40;;;;;;;4.78;1.45;;;17.80;92.30;;;;;;5040638;28;20072;-74
2022/07/07 06:06:08;;;;;;;3.88;1.50;;;17.70;92.20;;;;;;5057890;28;20036;-74
2022/07/07 06:08:35;;;;;;;6.85;1.70;;;17.70;92.20;;;;;;5055581;28;20052;-74
2022/07/07 06:11:03;;;;;;;4.15;1.40;;;17.70;92.00;;;;;;5056545;28;20045;-74
2022/07/07 06:13:31;;;;;;;4.05;1.20;;;17.80;91.90;;;;;;5056236;28;20060;-74
2022/07/07 06:15:59;;;;;;;4.22;1.20;;;17.70;91.20;;;;;;5056437;28;20053;-74
2022/07/07 06:18:26;;;;;;;8.05;1.45;;;17.70;91.50;;;;;;5057257;28;20041;-74
2022/07/07 06:20:54;;;;;;;5.07;1.30;;;17.80;91.50;;;;;;5055516;28;20052;-74
2022/07/07 06:23:22;;;;;;;4.57;1.50;;;17.80;91.50;;;;;;5057404;28;20441;-74
2022/07/07 06:25:50;;;;;;;4.50;1.50;;;17.90;91.50;;;;;;5056684;28;20377;-74
2022/07/07 06:28:17;;;;;;;6.03;1.40;;;17.90;91.30;;;;;;5055893;28;20066;-74
2022/07/07 06:30:51;;;;;;;5.95;1.30;;;18.00;91.00;;;;;;5056554;28;20040;-76
2022/07/07 06:33:19;;;;;;;3.53;1.38;;;18.00;90.90;;;;;;5044255;28;20049;-73
2022/07/07 06:35:46;;;;;;;3.83;1.40;;;18.00;90.60;;;;;;5054230;28;20048;-72
2022/07/07 06:38:14;;;;;;;5.00;1.25;;;18.00;90.80;;;;;;5051268;28;20046;-72
2022/07/07 06:40:41;;;;;;;3.45;1.38;;;18.10;90.50;;;;;;5035690;28;20048;-73
2022/07/07 06:43:16;;;;;;;4.03;1.25;;;18.10;90.60;;;;;;5036734;28;20066;-73
2022/07/07 06:45:44;;;;;;;5.45;1.50;;;18.10;90.60;;;;;;5034948;28;20667;-73
2022/07/07 06:48:11;;;;;;;3.28;1.45;;;18.00;90.60;;;;;;5034790;28;20050;-75
2022/07/07 06:50:39;;;;;;;5.20;1.60;;;18.10;90.90;;;;;;5036750;28;20506;-76
2022/07/07 06:53:07;;;;;;;7.22;1.63;;;18.10;90.60;;;;;;5035732;28;20053;-75
2022/07/07 06:55:34;;;;;;;5.15;1.40;;;18.10;90.60;;;;;;5035595;28;20052;-74
2022/07/07 06:58:02;;;;;;;6.63;1.98;;;18.10;90.60;;;;;;5036585;28;20049;-75
2022/07/07 07:00:30;;;;;;;5.47;1.80;;;18.10;90.70;;;;;;5033975;28;20061;-74
2022/07/07 07:02:58;;;;;;;4.38;1.55;;;18.10;90.70;;;;;;5035468;28;20391;-75
2022/07/07 07:05:28;;;;;;;5.18;1.60;;;18.20;90.80;;;;;;5035437;28;20072;-75
2022/07/07 07:07:56;;;;;;;7.05;1.90;;;18.20;90.70;;;;;;5034292;28;20058;-75
2022/07/07 07:10:23;;;;;;;5.65;1.80;;;18.30;90.70;;;;;;5036136;28;20049;-74
2022/07/07 07:12:51;;;;;;;6.38;2.00;;;18.30;90.60;;;;;;5036206;28;20053;-75
2022/07/07 07:15:19;;;;;;;3.33;1.50;;;18.30;90.60;;;;;;5034750;28;20053;-75
2022/07/07 07:17:46;;;;;;;4.65;1.40;;;18.30;90.20;;;;;;5036004;28;20053;-75
2022/07/07 07:20:18;;;;;;;5.90;1.85;;;18.30;89.60;;;;;;5033890;28;20064;-75
2022/07/07 07:22:46;;;;;;;6.22;1.60;;;18.40;89.90;;;;;;5036026;28;20368;-76
2022/07/07 07:25:15;;;;;;;5.93;1.70;;;18.40;90.10;;;;;;5018833;28;20486;-78
2022/07/07 07:27:46;;;;;;;8.00;1.50;;;18.40;89.40;;;;;;5033980;28;20048;-75
2022/07/07 07:30:16;;;;;;;6.22;1.85;;;18.30;89.10;;;;;;5036319;28;20053;-74
2022/07/07 07:32:44;;;;;;;9.50;1.50;;;18.40;89.40;;;;;;5024896;28;20376;-74
2022/07/07 07:35:12;;;;;;;7.55;2.08;;;18.40;89.20;;;;;;4997935;28;20050;-75
2022/07/07 07:37:39;;;;;;;4.22;1.67;;;18.40;89.30;;;;;;5016203;28;20068;-75
2022/07/07 07:40:10;;;;;;;7.05;1.92;;;18.40;89.70;;;;;;5024486;28;20365;-76
2022/07/07 07:42:38;;;;;;;11.07;1.73;;;18.50;89.50;;;;;;5001475;28;20506;-79
2022/07/07 07:45:12;;;;;;;5.82;1.67;;;18.50;88.90;;;;;;5000078;28;20050;-76
2022/07/07 07:47:44;;;;;;;6.75;1.70;;;18.60;88.40;;;;;;4996385;28;20042;-76
2022/07/07 07:50:20;;;;;;;5.63;1.73;;;18.50;88.70;;;;;;4998850;28;20049;-76
2022/07/07 07:52:49;;;;;;;6.53;1.70;;;18.60;88.70;;;;;;4998745;28;20388;-75
2022/07/07 07:55:22;;;;;;;5.82;1.58;;;18.50;88.30;;;;;;5014913;28;20045;-76
2022/07/07 07:57:51;;;;;;;6.93;1.60;;;18.50;88.40;;;;;;4998379;28;20479;-77
2022/07/07 08:00:20;;;;;;;6.85;1.90;;;18.50;88.50;;;;;;5014459;28;20046;-76
2022/07/07 08:02:49;;;;;;;9.13;1.70;;;18.50;88.80;;;;;;5015757;28;20050;-76
2022/07/07 08:05:18;;;;;;;4.15;1.50;;;18.50;89.00;;;;;;5015787;28;20049;-76
2022/07/07 08:07:48;;;;;;;6.32;1.92;;;18.60;89.00;;;;;;4997460;28;20053;-77
2022/07/07 08:10:16;;;;;;;6.93;1.90;;;18.60;88.70;;;;;;4982202;28;20065;-75
2022/07/07 08:12:45;;;;;;;6.32;1.88;;;18.70;88.50;;;;;;5015445;28;20061;-75
2022/07/07 08:15:12;;;;;;;5.05;1.50;;;18.70;88.50;;;;;;4997387;28;20064;-76
2022/07/07 08:17:40;;;;;;;5.00;1.52;;;18.70;88.30;;;;;;5015665;28;20049;-76
2022/07/07 08:20:08;;;;;;;7.13;1.80;;;18.70;88.20;;;;;;4981020;28;20049;-79
2022/07/07 08:22:36;;;;;;;8.85;1.63;;;18.60;88.00;;;;;;5015255;28;20471;-78
2022/07/07 08:25:04;;;;;;;4.95;1.45;;;18.60;88.40;;;;;;4998166;28;20045;-77
2022/07/07 08:27:32;;;;;;;;;;;18.70;88.60;;;;;;4997570;28;20056;-78
2022/07/07 08:30:00;;;;;;;5.05;1.48;;;18.80;87.40;;;;;;5015148;28;20370;-77
2022/07/07 08:32:29;;;;;;;5.18;1.45;;;18.90;87.90;;;;;;5015089;28;20065;-77
2022/07/07 08:34:57;;;;;;;4.70;1.42;;;18.90;87.30;;;;;;5014009;28;20057;-74
2022/07/07 08:37:24;;;;;;;6.30;1.38;;;19.00;86.40;;;;;;5015041;28;20050;-74
2022/07/07 08:39:52;;;;;;;4.15;1.50;;;19.00;86.30;;;;;;4965702;28;20072;-74
2022/07/07 08:42:19;;;;;;;6.72;1.30;;;19.00;86.60;;;;;;4998130;28;20502;-74
2022/07/07 08:44:47;;;;;;;5.22;1.50;;;19.00;86.80;;;;;;5015090;28;20057;-74
2022/07/07 08:47:54;;;;;;;4.57;1.25;;;19.00;86.80;;;;;;4996001;28;20052;-75
2022/07/07 08:50:40;;;;;;;6.97;1.45;;;19.10;86.60;;;;;;5014289;28;20065;-75
2022/07/07 08:53:11;;;;;;;6.10;1.50;;;19.30;85.70;;;;;;4997584;28;20341;-74
2022/07/07 08:55:43;;;;;;;6.07;1.52;;;19.40;86.10;;;;;;5014713;28;20046;-74
2022/07/07 08:58:12;;;;;;;4.60;1.63;;;19.50;85.70;;;;;;5030236;28;20054;-74
2022/07/07 09:00:40;;;;;;;5.78;1.50;;;19.60;85.60;;;;;;5013242;28;20042;-75
2022/07/07 09:03:07;;;;;;;5.03;1.35;;;19.60;84.90;;;;;;5014623;28;20050;-74
2022/07/07 09:05:38;;;;;;;4.95;1.23;;;19.60;84.90;;;;;;5014474;28;20060;-74
2022/07/07 09:08:20;;;;;;;4.93;1.20;;;19.60;84.40;;;;;;5013542;28;20046;-73
2022/07/07 09:10:48;;;;;;;4.90;1.30;;;19.70;83.90;;;;;;5014668;28;20045;-73
2022/07/07 09:13:34;;;;;;;5.68;1.50;;;19.70;84.40;;;;;;5013365;28;20050;-73
2022/07/07 09:16:12;;;;;;;7.88;1.73;;;19.70;83.70;;;;;;5017551;28;20053;-73
2022/07/07 09:18:49;;;;;;;4.45;1.55;;;19.70;84.10;;;;;;5001859;28;20045;-73
2022/07/07 09:21:31;;;;;;;5.28;1.50;;;19.60;84.10;;;;;;5018176;28;20042;-73
2022/07/07 09:24:01;;;;;;;7.13;1.38;;;19.70;84.70;;;;;;5000964;28;20049;-73
2022/07/07 09:26:37;;;;;;;14.02;2.10;;;19.70;84.60;;;;;;5001516;28;20046;-73
2022/07/07 09:29:08;;;;;;;8.95;1.65;;;19.70;84.50;;;;;;5018716;28;20053;-73
2022/07/07 09:32:05;;;;;;;9.18;1.75;;;19.70;84.70;;;;;;5018522;28;20065;-73
2022/07/07 09:34:35;;;;;;;7.30;1.50;;;19.90;84.80;;;;;;5016400;28;20361;-73
2022/07/07 09:39:55;;;;;;;7.40;1.67;;;20.10;84.10;;;;;;5018489;28;20046;-73
2022/07/07 09:42:36;;;;;;;7.88;1.60;;;20.10;83.40;;;;;;5018440;28;20038;-73
2022/07/07 09:45:06;;;;;;;4.40;1.38;;;20.10;82.90;;;;;;5001322;28;20487;-73
2022/07/07 09:47:34;;;;;;;4.35;1.42;;;19.90;82.80;;;;;;5016639;28;20053;-73
2022/07/07 09:50:13;;;;;;;5.47;1.67;;;19.70;83.40;;;;;;5017788;28;20053;-73
2022/07/07 09:52:45;;;;;;;3.58;1.25;;;19.70;83.80;;;;;;4984603;28;20049;-73
2022/07/07 09:55:13;;;;;;;4.65;1.40;;;19.60;83.90;;;;;;5016733;28;20047;-73
2022/07/07 09:57:42;;;;;;;7.40;1.17;;;19.60;84.10;;;;;;5017757;28;20060;-73
2022/07/07 10:00:10;;;;;;;4.45;1.50;;;19.60;84.10;;;;;;4999087;28;20464;-73
2022/07/07 10:02:38;;;;;;;;;;;19.70;84.10;;;;;;5017816;28;20507;-73
2022/07/07 10:05:06;;;;;;;6.00;1.35;;;19.70;83.40;;;;;;5017754;28;20271;-73
2022/07/07 10:07:35;;;;;;;7.30;1.50;;;19.80;83.20;;;;;;5016496;28;20050;-74
2022/07/07 10:10:06;;;;;;;9.65;1.40;;;19.90;82.70;;;;;;5017640;28;20053;-73
2022/07/07 10:12:42;;;;;;;4.55;1.30;;;20.00;83.00;;;;;;5017439;28;20487;-73
2022/07/07 10:15:12;;;;;;;6.05;1.23;;;20.20;82.20;;;;;;4983074;28;20057;-73
2022/07/07 10:17:42;;;;;;;6.43;1.20;;;20.30;82.50;;;;;;5000202;28;20068;-73
2022/07/07 10:20:11;;;;;;;10.23;1.48;;;20.30;81.70;;;;;;4999024;28;20042;-73
2022/07/07 10:22:40;;;;;;;2.65;1.00;;;20.30;81.70;;;;;;5017228;28;20042;-73
2022/07/07 10:25:09;;;;;;;4.15;0.90;;;20.30;81.70;;;;;;5000235;28;20069;-74
2022/07/07 10:27:42;;;;;;;3.85;1.10;;;20.30;80.80;;;;;;5015033;28;20046;-74
2022/07/07 10:30:28;;;;;;;6.13;1.20;;;20.20;79.70;;;;;;5017243;28;20046;-74
2022/07/07 10:32:57;;;;;;;6.13;1.10;;;20.20;80.60;;;;;;5016694;28;20057;-74
2022/07/07 10:35:25;;;;;;;4.65;1.20;;;20.20;80.60;;;;;;4998804;28;20050;-74
2022/07/07 10:37:56;;;;;;;5.00;0.90;;;20.10;80.10;;;;;;4999904;28;20042;-74
2022/07/07 10:40:29;;;;;;;3.83;1.08;;;20.10;79.80;;;;;;4998729;28;20357;-74
2022/07/07 10:43:25;;;;;;;2.50;1.05;;;20.10;80.30;;;;;;4999840;28;20495;-74
2022/07/07 10:45:55;;;;;;;2.88;0.90;;;20.00;80.00;;;;;;5016538;28;20049;-75
2022/07/07 10:48:45;;;;;;;3.05;1.00;;;20.10;79.50;;;;;;4982437;28;20064;-75
2022/07/07 10:51:18;;;;;;;2.65;0.85;;;20.10;79.10;;;;;;4999738;28;20468;-75
2022/07/07 10:54:06;;;;;;;4.18;0.90;;;20.00;79.50;;;;;;5015651;28;20049;-75
2022/07/07 10:56:55;;;;;;;2.50;0.90;;;20.00;80.00;;;;;;5015139;28;20065;-75
2022/07/07 10:59:23;;;;;;;4.20;1.10;;;20.10;80.00;;;;;;5014073;28;20045;-76
2022/07/07 11:02:00;;;;;;;;;;;20.10;80.10;;;;;;5035232;28;20048;-77
2022/07/07 11:04:43;;;;;;;5.90;1.07;;;20.10;79.70;;;;;;5007581;28;19929;-77
2022/07/07 11:07:19;;;;;;;3.00;0.90;;;20.20;79.00;;;;;;4998813;28;20046;-73
2022/07/07 11:10:07;;;;;;;3.78;0.93;;;20.20;79.50;;;;;;4983679;28;20046;-73
2022/07/07 11:12:52;;;;;;;3.05;0.75;;;20.20;78.50;;;;;;4999497;28;20060;-74
2022/07/07 11:15:30;;;;;;;2.72;0.65;;;20.10;79.10;;;;;;5016469;28;20053;-73
2022/07/07 11:18:00;;;;;;;6.65;1.20;;;20.30;79.00;;;;;;5003049;28;20057;-74
2022/07/07 11:20:30;;;;;;;4.47;1.10;;;20.30;79.00;;;;;;5017810;28;20064;-73
2022/07/07 11:23:12;;;;;;;8.50;1.00;;;20.30;79.20;;;;;;5036093;28;20045;-72
2022/07/07 11:25:41;;;;;;;4.97;1.15;;;20.30;79.40;;;;;;5019533;28;20046;-71
2022/07/07 11:28:10;;;;;;;3.78;1.00;;;20.30;79.60;;;;;;4998061;28;20046;-72
2022/07/07 11:30:41;;;;;;;2.83;0.90;;;20.30;79.00;;;;;;5016286;28;20044;-71
2022/07/07 11:33:10;;;;;;;4.45;0.90;;;20.30;78.90;;;;;;5024943;28;20042;-71
2022/07/07 11:35:40;;;;;;;5.35;1.27;;;20.30;79.10;;;;;;5034951;28;20041;-73
2022/07/07 11:38:11;;;;;;;4.38;1.00;;;20.30;79.20;;;;;;5035282;28;20060;-72
2022/07/07 11:40:40;;;;;;;7.25;1.55;;;20.30;79.10;;;;;;5034445;28;20049;-73
2022/07/07 11:43:29;;;;;;;3.28;1.20;;;20.30;79.50;;;;;;5019053;28;20056;-72
2022/07/07 11:45:59;;;;;;;5.60;1.42;;;20.30;79.60;;;;;;5037890;28;20048;-74
2022/07/07 11:48:39;;;;;;;3.72;1.10;;;20.30;79.50;;;;;;5051907;28;20049;-74
2022/07/07 11:51:07;;;;;;;3.25;1.23;;;20.30;79.00;;;;;;5054486;28;20472;-74
2022/07/07 11:53:35;;;;;;;4.68;1.27;;;20.30;78.10;;;;;;5053344;28;20057;-73
2022/07/07 11:56:03;;;;;;;4.72;1.25;;;20.30;78.60;;;;;;5055396;28;20483;-73
2022/07/07 11:58:34;;;;;;;3.72;1.10;;;20.30;78.80;;;;;;5054090;28;20498;-73
2022/07/07 12:01:02;;;;;;;8.00;1.60;;;20.40;78.90;;;;;;5054210;28;20356;-74
2022/07/07 12:03:33;;;;;;;3.72;1.27;;;20.40;78.80;;;;;;5054974;28;20045;-73
2022/07/07 12:06:02;;;;;;;5.45;1.38;;;20.40;79.00;;;;;;5038012;28;20042;-74
2022/07/07 12:08:35;;;;;;;6.20;1.13;;;20.50;79.00;;;;;;5053153;28;20041;-73
2022/07/07 12:11:05;;;;;;;2.67;1.35;;;20.50;78.50;;;;;;5054552;28;20051;-74
2022/07/07 12:13:35;;;;;;;7.82;1.30;;;20.50;78.60;;;;;;5053010;28;20060;-74
2022/07/07 12:16:04;;;;;;;5.45;1.25;;;20.60;78.90;;;;;;5053969;28;20375;-73
2022/07/07 12:18:35;;;;;;;3.40;1.17;;;20.60;78.20;;;;;;5054860;28;20068;-74
2022/07/07 12:21:09;;;;;;;4.28;1.17;;;20.70;78.30;;;;;;5036339;28;20072;-74
2022/07/07 12:23:43;;;;;;;2.85;1.10;;;20.70;78.10;;;;;;5053856;28;20470;-73
2022/07/07 12:26:16;;;;;;;3.83;1.30;;;20.70;77.40;;;;;;5037294;28;20053;-74
2022/07/07 12:28:45;;;;;;;7.68;1.23;;;20.80;78.20;;;;;;5052946;28;20045;-74
2022/07/07 12:31:20;;;;;;;3.50;1.10;;;20.90;77.80;;;;;;5054625;28;20052;-74
2022/07/07 12:33:52;;;;;;;4.47;1.42;;;20.90;77.20;;;;;;5052485;28;20044;-73
2022/07/07 12:36:24;;;;;;;2.38;1.08;;;21.00;77.70;;;;;;5020688;28;20055;-74
2022/07/07 12:38:56;;;;;;;6.68;1.50;;;21.10;77.10;;;;;;5054573;28;20379;-74
2022/07/07 12:41:28;;;;;;;3.10;1.10;;;21.10;76.90;;;;;;5053175;28;20052;-73
2022/07/07 12:44:18;;;;;;;4.22;1.10;;;21.10;77.10;;;;;;5053653;28;20068;-73
2022/07/07 12:47:06;;;;;;;4.55;1.20;;;21.10;77.00;;;;;;5035839;28;20052;-73
2022/07/07 12:49:34;;;;;;;;;;;21.10;77.40;;;;;;5053421;28;20124;-72
2022/07/07 12:52:10;;;;;;;5.60;1.25;;;21.20;76.70;;;;;;5053648;28;19920;-73
2022/07/07 12:54:38;;;;;;;6.82;1.40;;;21.20;77.00;;;;;;5053075;28;20456;-74
2022/07/07 12:57:08;;;;;;;6.88;1.80;;;21.10;76.60;;;;;;5054145;28;20052;-74
2022/07/07 12:59:44;;;;;;;2.45;0.90;;;21.50;76.50;;;;;;5054371;28;20049;-75
2022/07/07 13:02:14;;;;;;;6.45;1.20;;;21.60;76.40;;;;;;5052301;28;20049;-73
2022/07/07 13:04:43;;;;;;;5.63;1.10;;;21.70;76.00;;;;;;5054298;28;20037;-73
2022/07/07 13:07:11;;;;;;;9.48;1.30;;;20.80;74.30;;;;;;5052414;28;20049;-74